sensor_id;sensor_type;location;lat;lon;timestamp;pressure;altitude;pressure_sealevel;temperature;humidity
19736;BME280;32064;49.310;8.646;2023-04-01T00:02:16;99076.97;;;13.10;71.86
19736;BME280;32064;49.310;8.646;2023-04-01T00:04:42;99075.63;;;13.06;71.13
19736;BME280;32064;49.310;8.646;2023-04-01T00:07:08;99070.50;;;13.04;71.96
19736;BME280;32064;49.310;8.646;2023-04-01T00:09:34;99074.28;;;13.01;71.45
19736;BME280;32064;49.310;8.646;2023-04-01T00:12:00;99085.97;;;12.99;72.24
19736;BME280;32064;49.310;8.646;2023-04-01T00:14:26;99074.03;;;12.87;71.73
19736;BME280;32064;49.310;8.646;2023-04-01T00:16:51;99073.72;;;12.90;71.71
19736;BME280;32064;49.310;8.646;2023-04-01T00:19:17;99071.56;;;12.85;71.22
19736;BME280;32064;49.310;8.646;2023-04-01T00:21:43;99070.41;;;12.88;72.12
19736;BME280;32064;49.310;8.646;2023-04-01T00:24:08;99074.84;;;12.87;71.05
19736;BME280;32064;49.310;8.646;2023-04-01T00:26:34;99069.69;;;12.77;72.41
19736;BME280;32064;49.310;8.646;2023-04-01T00:28:59;99059.06;;;12.69;71.67
19736;BME280;32064;49.310;8.646;2023-04-01T00:31:25;99064.09;;;12.80;72.54
19736;BME280;32064;49.310;8.646;2023-04-01T00:33:51;99066.38;;;12.75;72.19
19736;BME280;32064;49.310;8.646;2023-04-01T00:36:19;99067.56;;;12.81;71.39
19736;BME280;32064;49.310;8.646;2023-04-01T00:38:46;99062.28;;;12.81;72.72
19736;BME280;32064;49.310;8.646;2023-04-01T00:41:13;99063.41;;;12.78;73.03
19736;BME280;32064;49.310;8.646;2023-04-01T00:43:41;99071.50;;;12.77;72.72
19736;BME280;32064;49.310;8.646;2023-04-01T00:46:07;99068.88;;;12.77;71.94
19736;BME280;32064;49.310;8.646;2023-04-01T00:48:34;99069.63;;;12.69;72.86
19736;BME280;32064;49.310;8.646;2023-04-01T00:51:07;99065.53;;;12.75;72.59
19736;BME280;32064;49.310;8.646;2023-04-01T00:53:38;99070.50;;;12.78;71.94
19736;BME280;32064;49.310;8.646;2023-04-01T00:56:12;99066.06;;;12.78;72.87
19736;BME280;32064;49.310;8.646;2023-04-01T00:58:43;99075.47;;;12.81;72.63
19736;BME280;32064;49.310;8.646;2023-04-01T01:01:10;99063.47;;;12.87;71.17
19736;BME280;32064;49.310;8.646;2023-04-01T01:03:35;99075.03;;;12.86;70.98
19736;BME280;32064;49.310;8.646;2023-04-01T01:06:26;99066.44;;;12.84;71.60
19736;BME280;32064;49.310;8.646;2023-04-01T01:09:21;99060.84;;;12.87;71.08
19736;BME280;32064;49.310;8.646;2023-04-01T01:12:14;99058.66;;;12.82;71.62
19736;BME280;32064;49.310;8.646;2023-04-01T01:17:57;99062.03;;;12.92;71.20
19736;BME280;32064;49.310;8.646;2023-04-01T01:26:23;99055.09;;;12.91;72.25
19736;BME280;32064;49.310;8.646;2023-04-01T01:31:47;99061.16;;;12.84;71.66
19736;BME280;32064;49.310;8.646;2023-04-01T01:34:46;99046.09;;;12.76;71.53
19736;BME280;32064;49.310;8.646;2023-04-01T01:37:18;99050.91;;;12.80;72.82
19736;BME280;32064;49.310;8.646;2023-04-01T01:39:49;99039.56;;;12.88;71.45
19736;BME280;32064;49.310;8.646;2023-04-01T01:42:16;99048.16;;;12.90;71.43
19736;BME280;32064;49.310;8.646;2023-04-01T01:44:46;99038.78;;;12.96;71.88
19736;BME280;32064;49.310;8.646;2023-04-01T01:47:13;99042.59;;;13.01;71.08
19736;BME280;32064;49.310;8.646;2023-04-01T01:49:40;99039.00;;;13.02;70.40
19736;BME280;32064;49.310;8.646;2023-04-01T01:52:07;99039.81;;;13.03;71.96
19736;BME280;32064;49.310;8.646;2023-04-01T01:54:32;99035.50;;;13.02;71.60
19736;BME280;32064;49.310;8.646;2023-04-01T01:57:07;99039.44;;;12.98;70.16
19736;BME280;32064;49.310;8.646;2023-04-01T01:59:35;99034.03;;;12.99;71.39
19736;BME280;32064;49.310;8.646;2023-04-01T02:02:02;99041.94;;;12.99;71.10
19736;BME280;32064;49.310;8.646;2023-04-01T02:04:35;99030.41;;;13.00;71.63
19736;BME280;32064;49.310;8.646;2023-04-01T02:07:10;99037.13;;;12.95;71.74
19736;BME280;32064;49.310;8.646;2023-04-01T02:09:37;99042.59;;;13.01;69.86
19736;BME280;32064;49.310;8.646;2023-04-01T02:12:08;99030.22;;;13.02;70.23
19736;BME280;32064;49.310;8.646;2023-04-01T02:14:43;99034.84;;;13.00;70.71
19736;BME280;32064;49.310;8.646;2023-04-01T02:17:13;99036.84;;;13.06;69.67
19736;BME280;32064;49.310;8.646;2023-04-01T02:19:45;99037.19;;;13.03;70.57
19736;BME280;32064;49.310;8.646;2023-04-01T02:22:16;99034.38;;;13.04;69.85
19736;BME280;32064;49.310;8.646;2023-04-01T02:24:43;99031.13;;;13.11;70.61
19736;BME280;32064;49.310;8.646;2023-04-01T02:27:10;99031.41;;;13.08;68.87
19736;BME280;32064;49.310;8.646;2023-04-01T02:29:36;99029.63;;;13.08;70.33
19736;BME280;32064;49.310;8.646;2023-04-01T02:32:02;99032.09;;;13.10;69.51
19736;BME280;32064;49.310;8.646;2023-04-01T02:34:28;99024.38;;;13.16;69.29
19736;BME280;32064;49.310;8.646;2023-04-01T02:36:55;99028.75;;;13.08;69.84
19736;BME280;32064;49.310;8.646;2023-04-01T02:39:20;99027.78;;;13.09;68.54
19736;BME280;32064;49.310;8.646;2023-04-01T02:41:46;99026.16;;;13.16;68.98
19736;BME280;32064;49.310;8.646;2023-04-01T02:44:13;99030.16;;;13.20;68.21
19736;BME280;32064;49.310;8.646;2023-04-01T02:46:39;99034.25;;;13.14;68.62
19736;BME280;32064;49.310;8.646;2023-04-01T02:49:05;99022.22;;;13.20;69.30
19736;BME280;32064;49.310;8.646;2023-04-01T02:51:31;99034.63;;;13.19;68.13
19736;BME280;32064;49.310;8.646;2023-04-01T02:53:57;99035.44;;;13.20;69.50
19736;BME280;32064;49.310;8.646;2023-04-01T02:56:22;99038.09;;;13.20;69.34
19736;BME280;32064;49.310;8.646;2023-04-01T02:58:48;99042.88;;;13.24;68.67
19736;BME280;32064;49.310;8.646;2023-04-01T03:01:14;99043.88;;;13.23;70.15
19736;BME280;32064;49.310;8.646;2023-04-01T03:03:39;99038.59;;;13.23;70.17
19736;BME280;32064;49.310;8.646;2023-04-01T03:06:09;99030.97;;;13.20;69.82
19736;BME280;32064;49.310;8.646;2023-04-01T03:08:35;99036.25;;;13.20;69.41
19736;BME280;32064;49.310;8.646;2023-04-01T03:11:01;99027.31;;;13.13;69.24
19736;BME280;32064;49.310;8.646;2023-04-01T03:13:27;99033.75;;;13.11;69.50
19736;BME280;32064;49.310;8.646;2023-04-01T03:15:52;99027.31;;;13.13;70.15
19736;BME280;32064;49.310;8.646;2023-04-01T03:18:18;99032.44;;;13.15;70.68
19736;BME280;32064;49.310;8.646;2023-04-01T03:20:43;99028.47;;;13.11;70.40
19736;BME280;32064;49.310;8.646;2023-04-01T03:23:09;99036.41;;;13.11;70.28
19736;BME280;32064;49.310;8.646;2023-04-01T03:25:34;99047.94;;;13.10;69.28
19736;BME280;32064;49.310;8.646;2023-04-01T03:27:59;99051.25;;;13.12;70.55
19736;BME280;32064;49.310;8.646;2023-04-01T03:30:25;99051.06;;;13.13;69.39
19736;BME280;32064;49.310;8.646;2023-04-01T03:32:51;99044.47;;;13.09;70.34
19736;BME280;32064;49.310;8.646;2023-04-01T03:35:17;99048.41;;;13.05;69.28
19736;BME280;32064;49.310;8.646;2023-04-01T03:37:43;99031.53;;;12.98;70.23
19736;BME280;32064;49.310;8.646;2023-04-01T03:40:09;99040.28;;;12.98;69.84
19736;BME280;32064;49.310;8.646;2023-04-01T03:42:35;99038.00;;;13.03;69.76
19736;BME280;32064;49.310;8.646;2023-04-01T03:45:01;99040.94;;;13.00;70.25
19736;BME280;32064;49.310;8.646;2023-04-01T03:47:26;99034.31;;;12.96;69.19
19736;BME280;32064;49.310;8.646;2023-04-01T03:49:52;99038.41;;;12.91;69.92
19736;BME280;32064;49.310;8.646;2023-04-01T03:52:17;99053.97;;;12.94;69.30
19736;BME280;32064;49.310;8.646;2023-04-01T03:54:43;99042.56;;;12.93;69.37
19736;BME280;32064;49.310;8.646;2023-04-01T03:57:08;99048.97;;;12.91;70.98
19736;BME280;32064;49.310;8.646;2023-04-01T03:59:34;99048.31;;;12.89;71.27
19736;BME280;32064;49.310;8.646;2023-04-01T04:01:59;99051.28;;;12.86;71.04
19736;BME280;32064;49.310;8.646;2023-04-01T04:04:25;99055.34;;;12.80;70.21
19736;BME280;32064;49.310;8.646;2023-04-01T04:06:51;99046.91;;;12.76;71.57
19736;BME280;32064;49.310;8.646;2023-04-01T04:09:16;99050.47;;;12.67;70.58
19736;BME280;32064;49.310;8.646;2023-04-01T04:11:42;99058.69;;;12.64;72.42
19736;BME280;32064;49.310;8.646;2023-04-01T04:14:07;99063.31;;;12.62;71.10
19736;BME280;32064;49.310;8.646;2023-04-01T04:16:34;99055.75;;;12.67;70.48
19736;BME280;32064;49.310;8.646;2023-04-01T04:19:02;99054.09;;;12.66;71.74
19736;BME280;32064;49.310;8.646;2023-04-01T04:21:28;99054.03;;;12.58;71.56
19736;BME280;32064;49.310;8.646;2023-04-01T04:23:53;99070.69;;;12.58;72.93
19736;BME280;32064;49.310;8.646;2023-04-01T04:26:19;99057.50;;;12.58;71.91
19736;BME280;32064;49.310;8.646;2023-04-01T04:28:44;99066.72;;;12.54;71.38
19736;BME280;32064;49.310;8.646;2023-04-01T04:31:10;99062.09;;;12.56;71.40
19736;BME280;32064;49.310;8.646;2023-04-01T04:33:35;99062.97;;;12.57;73.43
19736;BME280;32064;49.310;8.646;2023-04-01T04:36:02;99053.53;;;12.54;72.10
19736;BME280;32064;49.310;8.646;2023-04-01T04:38:28;99049.69;;;12.49;72.34
19736;BME280;32064;49.310;8.646;2023-04-01T04:40:53;99052.53;;;12.55;73.02
19736;BME280;32064;49.310;8.646;2023-04-01T04:43:19;99046.13;;;12.58;73.21
19736;BME280;32064;49.310;8.646;2023-04-01T04:45:45;99032.19;;;12.48;72.30
19736;BME280;32064;49.310;8.646;2023-04-01T04:48:12;99030.88;;;12.44;72.08
19736;BME280;32064;49.310;8.646;2023-04-01T04:50:47;99038.41;;;12.39;71.80
19736;BME280;32064;49.310;8.646;2023-04-01T04:53:14;99029.03;;;12.44;72.40
19736;BME280;32064;49.310;8.646;2023-04-01T04:55:48;99033.00;;;12.40;72.20
19736;BME280;32064;49.310;8.646;2023-04-01T04:58:14;99012.09;;;12.47;72.71
19736;BME280;32064;49.310;8.646;2023-04-01T05:00:39;99015.91;;;12.52;72.08
19736;BME280;32064;49.310;8.646;2023-04-01T05:03:05;99028.66;;;12.57;73.53
19736;BME280;32064;49.310;8.646;2023-04-01T05:05:30;99022.38;;;12.58;71.44
19736;BME280;32064;49.310;8.646;2023-04-01T05:07:56;99020.13;;;12.63;73.17
19736;BME280;32064;49.310;8.646;2023-04-01T05:10:21;99019.44;;;12.61;71.67
19736;BME280;32064;49.310;8.646;2023-04-01T05:12:47;99014.84;;;12.63;72.91
19736;BME280;32064;49.310;8.646;2023-04-01T05:15:12;99026.59;;;12.69;71.74
19736;BME280;32064;49.310;8.646;2023-04-01T05:17:37;99017.00;;;12.68;72.12
19736;BME280;32064;49.310;8.646;2023-04-01T05:20:04;99021.00;;;12.72;70.98
19736;BME280;32064;49.310;8.646;2023-04-01T05:22:30;99015.53;;;12.73;71.90
19736;BME280;32064;49.310;8.646;2023-04-01T05:24:55;99026.28;;;12.72;71.33
19736;BME280;32064;49.310;8.646;2023-04-01T05:27:20;99025.97;;;12.75;72.30
19736;BME280;32064;49.310;8.646;2023-04-01T05:29:46;99020.81;;;12.73;70.81
19736;BME280;32064;49.310;8.646;2023-04-01T05:32:11;99016.41;;;12.74;71.66
19736;BME280;32064;49.310;8.646;2023-04-01T05:34:37;99011.63;;;12.77;71.00
19736;BME280;32064;49.310;8.646;2023-04-01T05:37:02;99020.50;;;12.76;70.81
19736;BME280;32064;49.310;8.646;2023-04-01T05:39:27;99011.31;;;12.80;71.02
19736;BME280;32064;49.310;8.646;2023-04-01T05:41:53;99025.19;;;12.83;70.47
19736;BME280;32064;49.310;8.646;2023-04-01T05:44:18;99023.44;;;12.91;71.63
19736;BME280;32064;49.310;8.646;2023-04-01T05:46:44;99020.78;;;12.91;70.36
19736;BME280;32064;49.310;8.646;2023-04-01T05:49:09;99017.00;;;12.94;70.42
19736;BME280;32064;49.310;8.646;2023-04-01T05:51:35;99006.59;;;12.92;71.37
19736;BME280;32064;49.310;8.646;2023-04-01T05:54:00;99013.00;;;12.90;70.65
19736;BME280;32064;49.310;8.646;2023-04-01T05:56:25;99014.00;;;12.89;70.48
19736;BME280;32064;49.310;8.646;2023-04-01T05:58:53;99021.66;;;13.00;70.77
19736;BME280;32064;49.310;8.646;2023-04-01T06:01:19;99019.31;;;12.97;70.73
19736;BME280;32064;49.310;8.646;2023-04-01T06:03:45;99012.06;;;12.99;70.42
19736;BME280;32064;49.310;8.646;2023-04-01T06:06:25;99009.72;;;12.96;70.12
19736;BME280;32064;49.310;8.646;2023-04-01T06:08:52;99014.69;;;12.99;70.11
19736;BME280;32064;49.310;8.646;2023-04-01T06:17:46;99008.78;;;12.97;70.81
19736;BME280;32064;49.310;8.646;2023-04-01T06:29:19;99019.91;;;13.17;70.25
19736;BME280;32064;49.310;8.646;2023-04-01T06:34:54;99022.91;;;13.22;71.20
19736;BME280;32064;49.310;8.646;2023-04-01T06:45:46;99024.75;;;12.95;73.17
19736;BME280;32064;49.310;8.646;2023-04-01T06:48:20;99026.38;;;12.88;72.74
19736;BME280;32064;49.310;8.646;2023-04-01T06:55:16;99024.16;;;12.75;73.58
19736;BME280;32064;49.310;8.646;2023-04-01T06:57:23;99017.41;;;12.81;73.88
19736;BME280;32064;49.310;8.646;2023-04-01T06:59:51;99014.09;;;12.79;73.13
19736;BME280;32064;49.310;8.646;2023-04-01T07:04:53;99009.34;;;12.83;72.74
19736;BME280;32064;49.310;8.646;2023-04-01T07:10:05;99017.53;;;12.71;73.50
19736;BME280;32064;49.310;8.646;2023-04-01T07:14:58;99014.59;;;12.74;74.00
19736;BME280;32064;49.310;8.646;2023-04-01T07:17:33;99022.00;;;12.79;73.39
19736;BME280;32064;49.310;8.646;2023-04-01T07:20:16;99023.84;;;12.78;74.98
19736;BME280;32064;49.310;8.646;2023-04-01T07:22:52;99020.38;;;12.78;73.67
19736;BME280;32064;49.310;8.646;2023-04-01T07:25:30;99023.00;;;12.78;74.56
19736;BME280;32064;49.310;8.646;2023-04-01T07:28:05;99029.34;;;12.85;72.86
19736;BME280;32064;49.310;8.646;2023-04-01T07:33:19;99027.72;;;12.92;74.29
19736;BME280;32064;49.310;8.646;2023-04-01T07:52:40;99034.16;;;12.98;74.80
19736;BME280;32064;49.310;8.646;2023-04-01T07:55:15;99036.66;;;12.99;74.92
19736;BME280;32064;49.310;8.646;2023-04-01T08:05:41;99044.31;;;13.19;75.50
19736;BME280;32064;49.310;8.646;2023-04-01T08:11:36;99033.75;;;13.19;74.33
19736;BME280;32064;49.310;8.646;2023-04-01T08:14:21;99026.44;;;13.31;74.42
19736;BME280;32064;49.310;8.646;2023-04-01T08:17:00;99038.34;;;13.35;74.77
19736;BME280;32064;49.310;8.646;2023-04-01T08:22:09;99037.84;;;13.31;75.59
19736;BME280;32064;49.310;8.646;2023-04-01T08:24:44;99044.31;;;13.45;73.89
19736;BME280;32064;49.310;8.646;2023-04-01T08:29:51;99034.53;;;13.37;75.20
19736;BME280;32064;49.310;8.646;2023-04-01T08:32:32;99033.91;;;13.43;74.05
19736;BME280;32064;49.310;8.646;2023-04-01T08:35:31;99042.19;;;13.48;74.05
19736;BME280;32064;49.310;8.646;2023-04-01T08:38:06;99051.59;;;13.51;74.25
19736;BME280;32064;49.310;8.646;2023-04-01T08:52:15;99050.09;;;13.14;76.38
19736;BME280;32064;49.310;8.646;2023-04-01T08:54:55;99045.81;;;13.21;75.62
19736;BME280;32064;49.310;8.646;2023-04-01T09:00:29;99063.00;;;13.17;75.57
19736;BME280;32064;49.310;8.646;2023-04-01T09:11:49;99056.94;;;13.25;75.64
19736;BME280;32064;49.310;8.646;2023-04-01T09:23:43;99066.09;;;13.47;75.49
19736;BME280;32064;49.310;8.646;2023-04-01T09:29:35;99063.00;;;13.52;74.96
19736;BME280;32064;49.310;8.646;2023-04-01T09:43:33;99070.47;;;13.73;75.24
19736;BME280;32064;49.310;8.646;2023-04-01T09:46:19;99070.50;;;13.64;74.66
19736;BME280;32064;49.310;8.646;2023-04-01T09:49:09;99072.97;;;13.74;75.66
19736;BME280;32064;49.310;8.646;2023-04-01T09:57:12;99079.25;;;13.65;75.71
19736;BME280;32064;49.310;8.646;2023-04-01T10:16:17;99079.94;;;13.83;75.08
19736;BME280;32064;49.310;8.646;2023-04-01T10:29:51;99091.03;;;13.95;74.57
19736;BME280;32064;49.310;8.646;2023-04-01T10:32:51;99094.34;;;13.97;74.56
19736;BME280;32064;49.310;8.646;2023-04-01T10:41:35;99105.94;;;14.04;74.06
19736;BME280;32064;49.310;8.646;2023-04-01T10:47:18;99095.59;;;14.35;74.08
19736;BME280;32064;49.310;8.646;2023-04-01T11:06:55;99104.38;;;14.52;74.10
19736;BME280;32064;49.310;8.646;2023-04-01T11:18:22;99106.47;;;14.41;74.02
19736;BME280;32064;49.310;8.646;2023-04-01T11:26:52;99107.47;;;14.31;74.08
19736;BME280;32064;49.310;8.646;2023-04-01T11:32:09;99108.97;;;14.34;74.39
19736;BME280;32064;49.310;8.646;2023-04-01T11:40:10;99115.41;;;14.40;74.44
19736;BME280;32064;49.310;8.646;2023-04-01T11:42:48;99111.78;;;14.32;74.26
19736;BME280;32064;49.310;8.646;2023-04-01T12:08:04;99130.28;;;14.16;75.96
19736;BME280;32064;49.310;8.646;2023-04-01T12:14:36;99147.16;;;14.40;75.23
19736;BME280;32064;49.310;8.646;2023-04-01T12:25:18;99145.72;;;14.53;75.74
19736;BME280;32064;49.310;8.646;2023-04-01T12:27:59;99142.25;;;14.53;75.10
19736;BME280;32064;49.310;8.646;2023-04-01T12:30:34;99136.47;;;14.57;74.92
19736;BME280;32064;49.310;8.646;2023-04-01T12:45:23;99155.28;;;14.38;75.13
19736;BME280;32064;49.310;8.646;2023-04-01T12:53:42;99155.59;;;14.27;75.80
19736;BME280;32064;49.310;8.646;2023-04-01T12:56:38;99161.19;;;14.32;75.35
19736;BME280;32064;49.310;8.646;2023-04-01T13:02:18;99153.34;;;14.56;74.23
19736;BME280;32064;49.310;8.646;2023-04-01T13:11:18;99165.91;;;14.71;73.51
19736;BME280;32064;49.310;8.646;2023-04-01T13:19:21;99173.19;;;14.52;74.16
19736;BME280;32064;49.310;8.646;2023-04-01T13:22:04;99176.28;;;14.48;74.61
19736;BME280;32064;49.310;8.646;2023-04-01T13:27:37;99181.97;;;14.53;74.48
19736;BME280;32064;49.310;8.646;2023-04-01T13:30:24;99192.22;;;14.56;74.00
19736;BME280;32064;49.310;8.646;2023-04-01T13:38:38;99191.09;;;14.67;73.33
19736;BME280;32064;49.310;8.646;2023-04-01T13:41:47;99195.19;;;14.77;72.32
19736;BME280;32064;49.310;8.646;2023-04-01T13:58:48;99197.72;;;14.87;73.02
19736;BME280;32064;49.310;8.646;2023-04-01T14:01:41;99203.81;;;14.88;71.92
19736;BME280;32064;49.310;8.646;2023-04-01T14:07:04;99204.97;;;14.85;71.96
19736;BME280;32064;49.310;8.646;2023-04-01T14:09:56;99208.78;;;14.91;72.18
19736;BME280;32064;49.310;8.646;2023-04-01T14:12:38;99207.81;;;14.84;71.80
19736;BME280;32064;49.310;8.646;2023-04-01T14:20:47;99206.47;;;15.04;71.14
19736;BME280;32064;49.310;8.646;2023-04-01T14:23:43;99202.81;;;14.97;70.99
19736;BME280;32064;49.310;8.646;2023-04-01T14:26:26;99209.59;;;14.83;70.90
19736;BME280;32064;49.310;8.646;2023-04-01T14:29:12;99215.56;;;14.77;71.15
19736;BME280;32064;49.310;8.646;2023-04-01T14:34:51;99220.88;;;14.85;71.10
19736;BME280;32064;49.310;8.646;2023-04-01T14:45:49;99224.16;;;14.71;71.15
19736;BME280;32064;49.310;8.646;2023-04-01T14:50:50;99228.16;;;14.75;71.21
19736;BME280;32064;49.310;8.646;2023-04-01T14:53:38;99232.75;;;14.65;71.14
19736;BME280;32064;49.310;8.646;2023-04-01T14:56:07;99233.44;;;14.67;71.66
19736;BME280;32064;49.310;8.646;2023-04-01T14:58:44;99229.13;;;14.66;71.51
19736;BME280;32064;49.310;8.646;2023-04-01T15:04:25;99237.31;;;14.46;71.08
19736;BME280;32064;49.310;8.646;2023-04-01T15:12:42;99242.50;;;14.56;71.78
19736;BME280;32064;49.310;8.646;2023-04-01T15:18:08;99244.66;;;14.52;72.09
19736;BME280;32064;49.310;8.646;2023-04-01T15:31:31;99248.22;;;14.43;72.72
19736;BME280;32064;49.310;8.646;2023-04-01T15:39:48;99263.06;;;14.28;73.42
19736;BME280;32064;49.310;8.646;2023-04-01T15:47:39;99249.22;;;14.42;73.54
19736;BME280;32064;49.310;8.646;2023-04-01T16:04:21;99274.09;;;14.57;73.89
19736;BME280;32064;49.310;8.646;2023-04-01T16:07:02;99272.31;;;14.58;73.75
19736;BME280;32064;49.310;8.646;2023-04-01T16:19:23;99289.94;;;14.49;71.88
19736;BME280;32064;49.310;8.646;2023-04-01T16:21:52;99279.81;;;14.45;71.77
19736;BME280;32064;49.310;8.646;2023-04-01T16:24:56;99279.34;;;14.49;71.63
19736;BME280;32064;49.310;8.646;2023-04-01T16:27:36;99287.94;;;14.51;72.29
19736;BME280;32064;49.310;8.646;2023-04-01T16:33:13;99295.38;;;14.48;72.48
19736;BME280;32064;49.310;8.646;2023-04-01T16:38:26;99302.81;;;14.44;73.01
19736;BME280;32064;49.310;8.646;2023-04-01T16:43:35;99295.53;;;14.46;73.09
19736;BME280;32064;49.310;8.646;2023-04-01T16:49:00;99309.94;;;14.44;72.50
19736;BME280;32064;49.310;8.646;2023-04-01T16:54:26;99310.22;;;14.32;72.29
19736;BME280;32064;49.310;8.646;2023-04-01T16:57:03;99310.56;;;14.37;72.69
19736;BME280;32064;49.310;8.646;2023-04-01T16:59:55;99326.38;;;14.29;72.58
19736;BME280;32064;49.310;8.646;2023-04-01T17:02:27;99330.22;;;14.35;71.98
19736;BME280;32064;49.310;8.646;2023-04-01T17:05:09;99325.25;;;14.32;71.65
19736;BME280;32064;49.310;8.646;2023-04-01T17:08:16;99332.34;;;14.31;71.76
19736;BME280;32064;49.310;8.646;2023-04-01T17:10:52;99340.47;;;14.30;71.80
19736;BME280;32064;49.310;8.646;2023-04-01T17:13:33;99336.47;;;14.26;70.85
19736;BME280;32064;49.310;8.646;2023-04-01T17:24:21;99350.31;;;14.20;70.19
19736;BME280;32064;49.310;8.646;2023-04-01T17:38:47;99358.16;;;14.03;69.81
19736;BME280;32064;49.310;8.646;2023-04-01T17:47:06;99383.09;;;14.01;69.63
19736;BME280;32064;49.310;8.646;2023-04-01T17:49:39;99388.56;;;13.99;69.22
19736;BME280;32064;49.310;8.646;2023-04-01T17:57:34;99391.34;;;13.98;70.42
19736;BME280;32064;49.310;8.646;2023-04-01T18:00:28;99392.84;;;14.00;70.04
19736;BME280;32064;49.310;8.646;2023-04-01T18:03:19;99394.97;;;13.97;70.71
19736;BME280;32064;49.310;8.646;2023-04-01T18:08:58;99395.22;;;13.85;71.51
19736;BME280;32064;49.310;8.646;2023-04-01T18:17:12;99405.88;;;13.76;72.63
19736;BME280;32064;49.310;8.646;2023-04-01T18:22:36;99410.88;;;13.79;72.52
19736;BME280;32064;49.310;8.646;2023-04-01T18:25:32;99417.97;;;13.78;71.82
19736;BME280;32064;49.310;8.646;2023-04-01T18:30:51;99418.50;;;13.64;72.49
19736;BME280;32064;49.310;8.646;2023-04-01T18:35:51;99431.56;;;13.65;71.99
19736;BME280;32064;49.310;8.646;2023-04-01T18:38:34;99436.03;;;13.65;72.17
19736;BME280;32064;49.310;8.646;2023-04-01T18:54:32;99453.94;;;13.53;72.92
19736;BME280;32064;49.310;8.646;2023-04-01T18:57:23;99465.63;;;13.51;73.18
19736;BME280;32064;49.310;8.646;2023-04-01T18:59:55;99468.56;;;13.47;73.94
19736;BME280;32064;49.310;8.646;2023-04-01T19:02:38;99472.88;;;13.48;73.75
19736;BME280;32064;49.310;8.646;2023-04-01T19:05:11;99469.69;;;13.45;72.34
19736;BME280;32064;49.310;8.646;2023-04-01T19:07:49;99473.00;;;13.47;73.51
19736;BME280;32064;49.310;8.646;2023-04-01T19:28:59;99501.94;;;13.48;73.00
19736;BME280;32064;49.310;8.646;2023-04-01T19:37:25;99497.91;;;13.44;73.64
19736;BME280;32064;49.310;8.646;2023-04-01T19:40:23;99504.34;;;13.42;73.49
19736;BME280;32064;49.310;8.646;2023-04-01T19:45:51;99511.13;;;13.44;72.90
19736;BME280;32064;49.310;8.646;2023-04-01T19:48:43;99498.22;;;13.41;73.44
19736;BME280;32064;49.310;8.646;2023-04-01T19:51:19;99504.47;;;13.40;73.51
19736;BME280;32064;49.310;8.646;2023-04-01T20:02:49;99520.53;;;13.29;72.89
19736;BME280;32064;49.310;8.646;2023-04-01T20:08:17;99530.84;;;13.22;73.52
19736;BME280;32064;49.310;8.646;2023-04-01T20:11:11;99530.84;;;13.22;74.21
19736;BME280;32064;49.310;8.646;2023-04-01T20:16:08;99534.59;;;13.20;74.48
19736;BME280;32064;49.310;8.646;2023-04-01T20:18:50;99539.34;;;13.16;74.50
19736;BME280;32064;49.310;8.646;2023-04-01T20:21:24;99548.63;;;13.20;74.15
19736;BME280;32064;49.310;8.646;2023-04-01T20:24:17;99550.03;;;13.15;74.48
19736;BME280;32064;49.310;8.646;2023-04-01T20:27:14;99551.69;;;13.16;75.91
19736;BME280;32064;49.310;8.646;2023-04-01T20:35:30;99558.50;;;13.18;76.16
19736;BME280;32064;49.310;8.646;2023-04-01T20:40:44;99558.94;;;13.14;76.29
19736;BME280;32064;49.310;8.646;2023-04-01T20:46:11;99571.03;;;13.16;75.26
19736;BME280;32064;49.310;8.646;2023-04-01T20:54:51;99563.56;;;13.02;76.69
19736;BME280;32064;49.310;8.646;2023-04-01T21:00:18;99569.28;;;12.97;78.07
19736;BME280;32064;49.310;8.646;2023-04-01T21:05:59;99572.06;;;12.96;77.48
19736;BME280;32064;49.310;8.646;2023-04-01T21:27:51;99596.09;;;12.93;77.90
19736;BME280;32064;49.310;8.646;2023-04-01T21:36:11;99599.72;;;12.82;77.10
19736;BME280;32064;49.310;8.646;2023-04-01T21:39:04;99602.25;;;12.84;76.72
19736;BME280;32064;49.310;8.646;2023-04-01T21:44:48;99608.91;;;12.88;77.47
19736;BME280;32064;49.310;8.646;2023-04-01T22:03:58;99628.94;;;12.80;77.16
19736;BME280;32064;49.310;8.646;2023-04-01T22:06:47;99629.34;;;12.86;78.09
19736;BME280;32064;49.310;8.646;2023-04-01T22:14:46;99633.50;;;12.88;77.77
19736;BME280;32064;49.310;8.646;2023-04-01T22:17:30;99632.56;;;12.79;78.69
19736;BME280;32064;49.310;8.646;2023-04-01T22:25:41;99641.00;;;12.83;78.92
19736;BME280;32064;49.310;8.646;2023-04-01T22:28:19;99646.13;;;12.85;77.19
19736;BME280;32064;49.310;8.646;2023-04-01T22:30:50;99653.66;;;12.89;78.17
19736;BME280;32064;49.310;8.646;2023-04-01T22:33:44;99649.47;;;12.87;78.57
19736;BME280;32064;49.310;8.646;2023-04-01T22:36:21;99655.16;;;12.82;78.11
19736;BME280;32064;49.310;8.646;2023-04-01T22:41:50;99653.91;;;12.76;78.86
19736;BME280;32064;49.310;8.646;2023-04-01T22:44:39;99658.25;;;12.77;79.31
19736;BME280;32064;49.310;8.646;2023-04-01T22:50:02;99653.66;;;12.79;78.30
19736;BME280;32064;49.310;8.646;2023-04-01T22:52:37;99664.47;;;12.76;79.06
19736;BME280;32064;49.310;8.646;2023-04-01T22:55:33;99667.69;;;12.70;79.22
19736;BME280;32064;49.310;8.646;2023-04-01T22:58:00;99666.16;;;12.68;78.91
19736;BME280;32064;49.310;8.646;2023-04-01T23:00:33;99671.31;;;12.69;79.74
19736;BME280;32064;49.310;8.646;2023-04-01T23:03:14;99672.13;;;12.70;79.70
19736;BME280;32064;49.310;8.646;2023-04-01T23:05:53;99674.66;;;12.71;79.18
19736;BME280;32064;49.310;8.646;2023-04-01T23:08:50;99683.41;;;12.72;78.49
19736;BME280;32064;49.310;8.646;2023-04-01T23:13:50;99687.25;;;12.68;79.89
19736;BME280;32064;49.310;8.646;2023-04-01T23:16:24;99683.94;;;12.66;79.01
19736;BME280;32064;49.310;8.646;2023-04-01T23:19:09;99683.69;;;12.69;79.40
19736;BME280;32064;49.310;8.646;2023-04-01T23:24:50;99687.56;;;12.55;78.63
19736;BME280;32064;49.310;8.646;2023-04-01T23:27:23;99696.72;;;12.61;77.95